sensor_id;sensor_type;location;lat;lon;timestamp;P1;durP1;ratioP1;P2;durP2;ratioP2
14394;SDS011;7282;49.204;10.652;2023-08-31T00:00:44;7.97;;;7.17;;
14394;SDS011;7282;49.204;10.652;2023-08-31T00:03:13;7.03;;;6.33;;
14394;SDS011;7282;49.204;10.652;2023-08-31T00:05:40;7.40;;;6.67;;
14394;SDS011;7282;49.204;10.652;2023-08-31T00:08:08;6.93;;;6.33;;
14394;SDS011;7282;49.204;10.652;2023-08-31T00:10:35;8.33;;;6.63;;
14394;SDS011;7282;49.204;10.652;2023-08-31T00:13:02;7.20;;;6.50;;
14394;SDS011;7282;49.204;10.652;2023-08-31T00:15:29;8.43;;;6.97;;
14394;SDS011;7282;49.204;10.652;2023-08-31T00:17:57;6.03;;;5.53;;
14394;SDS011;7282;49.204;10.652;2023-08-31T00:20:24;6.73;;;6.03;;
14394;SDS011;7282;49.204;10.652;2023-08-31T00:22:52;6.27;;;5.77;;
14394;SDS011;7282;49.204;10.652;2023-08-31T00:25:19;7.40;;;6.70;;
14394;SDS011;7282;49.204;10.652;2023-08-31T00:27:46;7.00;;;6.30;;
14394;SDS011;7282;49.204;10.652;2023-08-31T00:30:14;7.00;;;6.40;;
14394;SDS011;7282;49.204;10.652;2023-08-31T00:32:41;8.07;;;7.30;;
14394;SDS011;7282;49.204;10.652;2023-08-31T00:35:09;6.83;;;6.23;;
14394;SDS011;7282;49.204;10.652;2023-08-31T00:37:35;8.50;;;7.60;;
14394;SDS011;7282;49.204;10.652;2023-08-31T00:40:02;10.13;;;8.53;;
14394;SDS011;7282;49.204;10.652;2023-08-31T00:42:30;8.97;;;7.97;;
14394;SDS011;7282;49.204;10.652;2023-08-31T00:44:58;8.63;;;7.93;;
14394;SDS011;7282;49.204;10.652;2023-08-31T00:47:25;8.20;;;7.40;;
14394;SDS011;7282;49.204;10.652;2023-08-31T00:49:53;7.90;;;7.20;;
14394;SDS011;7282;49.204;10.652;2023-08-31T00:52:19;7.97;;;7.27;;
14394;SDS011;7282;49.204;10.652;2023-08-31T00:54:46;9.20;;;8.30;;
14394;SDS011;7282;49.204;10.652;2023-08-31T00:57:14;8.13;;;7.33;;
14394;SDS011;7282;49.204;10.652;2023-08-31T00:59:40;9.00;;;8.10;;
14394;SDS011;7282;49.204;10.652;2023-08-31T01:02:11;9.20;;;8.30;;
14394;SDS011;7282;49.204;10.652;2023-08-31T01:07:34;8.40;;;7.67;;
14394;SDS011;7282;49.204;10.652;2023-08-31T01:15:23;7.63;;;6.93;;
14394;SDS011;7282;49.204;10.652;2023-08-31T01:17:50;7.20;;;6.60;;
14394;SDS011;7282;49.204;10.652;2023-08-31T01:20:19;7.93;;;7.13;;
14394;SDS011;7282;49.204;10.652;2023-08-31T01:23:04;8.30;;;7.53;;
14394;SDS011;7282;49.204;10.652;2023-08-31T01:25:32;7.73;;;6.93;;
14394;SDS011;7282;49.204;10.652;2023-08-31T01:27:59;8.57;;;7.73;;
14394;SDS011;7282;49.204;10.652;2023-08-31T01:30:29;7.77;;;7.07;;
14394;SDS011;7282;49.204;10.652;2023-08-31T01:32:54;7.37;;;6.77;;
14394;SDS011;7282;49.204;10.652;2023-08-31T01:35:21;7.40;;;6.70;;
14394;SDS011;7282;49.204;10.652;2023-08-31T01:37:52;7.00;;;6.40;;
14394;SDS011;7282;49.204;10.652;2023-08-31T01:40:21;8.90;;;7.40;;
14394;SDS011;7282;49.204;10.652;2023-08-31T01:42:49;7.70;;;7.00;;
14394;SDS011;7282;49.204;10.652;2023-08-31T01:45:18;7.77;;;7.07;;
14394;SDS011;7282;49.204;10.652;2023-08-31T01:47:46;8.37;;;7.47;;
14394;SDS011;7282;49.204;10.652;2023-08-31T01:50:13;9.17;;;8.17;;
14394;SDS011;7282;49.204;10.652;2023-08-31T01:52:39;9.23;;;8.30;;
14394;SDS011;7282;49.204;10.652;2023-08-31T01:55:06;9.00;;;8.03;;
14394;SDS011;7282;49.204;10.652;2023-08-31T01:57:33;9.83;;;8.93;;
14394;SDS011;7282;49.204;10.652;2023-08-31T02:00:00;10.30;;;9.30;;
14394;SDS011;7282;49.204;10.652;2023-08-31T02:02:27;9.80;;;8.90;;
14394;SDS011;7282;49.204;10.652;2023-08-31T02:04:53;9.97;;;9.07;;
14394;SDS011;7282;49.204;10.652;2023-08-31T02:07:20;11.00;;;9.90;;
14394;SDS011;7282;49.204;10.652;2023-08-31T02:09:47;10.90;;;9.80;;
14394;SDS011;7282;49.204;10.652;2023-08-31T02:12:14;10.00;;;9.00;;
14394;SDS011;7282;49.204;10.652;2023-08-31T02:14:40;9.50;;;8.60;;
14394;SDS011;7282;49.204;10.652;2023-08-31T02:17:07;10.87;;;9.70;;
14394;SDS011;7282;49.204;10.652;2023-08-31T02:19:34;9.83;;;8.80;;
14394;SDS011;7282;49.204;10.652;2023-08-31T02:22:00;9.37;;;8.47;;
14394;SDS011;7282;49.204;10.652;2023-08-31T02:24:27;10.87;;;9.87;;
14394;SDS011;7282;49.204;10.652;2023-08-31T02:26:54;9.83;;;8.93;;
14394;SDS011;7282;49.204;10.652;2023-08-31T02:29:20;10.47;;;9.47;;
14394;SDS011;7282;49.204;10.652;2023-08-31T02:31:47;9.57;;;8.67;;
14394;SDS011;7282;49.204;10.652;2023-08-31T02:34:14;9.77;;;8.87;;
14394;SDS011;7282;49.204;10.652;2023-08-31T02:36:41;10.20;;;9.20;;
14394;SDS011;7282;49.204;10.652;2023-08-31T02:39:07;10.93;;;9.87;;
14394;SDS011;7282;49.204;10.652;2023-08-31T02:41:34;10.93;;;9.50;;
14394;SDS011;7282;49.204;10.652;2023-08-31T02:44:01;12.17;;;10.90;;
14394;SDS011;7282;49.204;10.652;2023-08-31T02:46:28;13.50;;;11.57;;
14394;SDS011;7282;49.204;10.652;2023-08-31T02:48:54;12.23;;;10.93;;
14394;SDS011;7282;49.204;10.652;2023-08-31T02:51:22;11.77;;;10.60;;
14394;SDS011;7282;49.204;10.652;2023-08-31T02:53:48;12.70;;;11.53;;
14394;SDS011;7282;49.204;10.652;2023-08-31T02:56:15;12.83;;;11.40;;
14394;SDS011;7282;49.204;10.652;2023-08-31T02:58:42;12.70;;;11.40;;
14394;SDS011;7282;49.204;10.652;2023-08-31T03:01:12;13.67;;;12.27;;
14394;SDS011;7282;49.204;10.652;2023-08-31T03:03:39;13.87;;;12.47;;
14394;SDS011;7282;49.204;10.652;2023-08-31T03:06:07;13.87;;;12.57;;
14394;SDS011;7282;49.204;10.652;2023-08-31T03:08:36;15.53;;;14.03;;
14394;SDS011;7282;49.204;10.652;2023-08-31T03:11:03;14.77;;;13.27;;
14394;SDS011;7282;49.204;10.652;2023-08-31T03:13:30;16.00;;;14.17;;
14394;SDS011;7282;49.204;10.652;2023-08-31T03:15:57;16.00;;;14.40;;
14394;SDS011;7282;49.204;10.652;2023-08-31T03:18:24;17.00;;;15.20;;
14394;SDS011;7282;49.204;10.652;2023-08-31T03:20:50;16.83;;;15.10;;
14394;SDS011;7282;49.204;10.652;2023-08-31T03:23:17;17.03;;;15.23;;
14394;SDS011;7282;49.204;10.652;2023-08-31T03:25:44;17.00;;;15.07;;
14394;SDS011;7282;49.204;10.652;2023-08-31T03:28:10;18.83;;;16.83;;
14394;SDS011;7282;49.204;10.652;2023-08-31T03:30:37;15.93;;;14.33;;
14394;SDS011;7282;49.204;10.652;2023-08-31T03:33:04;17.43;;;15.63;;
14394;SDS011;7282;49.204;10.652;2023-08-31T03:35:33;16.47;;;14.77;;
14394;SDS011;7282;49.204;10.652;2023-08-31T03:38:00;16.67;;;14.77;;
14394;SDS011;7282;49.204;10.652;2023-08-31T03:40:27;16.87;;;15.10;;
14394;SDS011;7282;49.204;10.652;2023-08-31T03:42:54;17.00;;;15.30;;
14394;SDS011;7282;49.204;10.652;2023-08-31T03:45:20;18.13;;;15.60;;
14394;SDS011;7282;49.204;10.652;2023-08-31T03:47:47;18.60;;;16.00;;
14394;SDS011;7282;49.204;10.652;2023-08-31T03:50:14;16.73;;;14.90;;
14394;SDS011;7282;49.204;10.652;2023-08-31T03:52:40;17.37;;;15.43;;
14394;SDS011;7282;49.204;10.652;2023-08-31T03:55:07;16.67;;;14.93;;
14394;SDS011;7282;49.204;10.652;2023-08-31T03:57:34;17.87;;;15.80;;
14394;SDS011;7282;49.204;10.652;2023-08-31T04:00:01;17.33;;;15.53;;
14394;SDS011;7282;49.204;10.652;2023-08-31T04:02:29;20.80;;;16.37;;
14394;SDS011;7282;49.204;10.652;2023-08-31T04:04:57;17.67;;;15.87;;
14394;SDS011;7282;49.204;10.652;2023-08-31T04:07:24;19.07;;;15.80;;
14394;SDS011;7282;49.204;10.652;2023-08-31T04:09:51;18.73;;;16.73;;
14394;SDS011;7282;49.204;10.652;2023-08-31T04:12:17;20.83;;;17.50;;
14394;SDS011;7282;49.204;10.652;2023-08-31T04:14:44;18.10;;;15.97;;
14394;SDS011;7282;49.204;10.652;2023-08-31T04:17:11;19.87;;;17.00;;
14394;SDS011;7282;49.204;10.652;2023-08-31T04:19:37;21.03;;;17.80;;
14394;SDS011;7282;49.204;10.652;2023-08-31T04:22:05;20.60;;;16.83;;
14394;SDS011;7282;49.204;10.652;2023-08-31T04:24:31;18.97;;;17.03;;
14394;SDS011;7282;49.204;10.652;2023-08-31T04:26:59;23.50;;;18.27;;
14394;SDS011;7282;49.204;10.652;2023-08-31T04:29:25;22.67;;;18.83;;
14394;SDS011;7282;49.204;10.652;2023-08-31T04:31:52;22.00;;;19.23;;
14394;SDS011;7282;49.204;10.652;2023-08-31T04:34:19;21.87;;;18.93;;
14394;SDS011;7282;49.204;10.652;2023-08-31T04:36:46;26.33;;;19.93;;
14394;SDS011;7282;49.204;10.652;2023-08-31T04:39:14;27.40;;;18.73;;
14394;SDS011;7282;49.204;10.652;2023-08-31T04:41:40;24.13;;;18.80;;
14394;SDS011;7282;49.204;10.652;2023-08-31T04:44:07;22.13;;;19.07;;
14394;SDS011;7282;49.204;10.652;2023-08-31T04:46:34;27.97;;;19.23;;
14394;SDS011;7282;49.204;10.652;2023-08-31T04:49:00;22.93;;;18.10;;
14394;SDS011;7282;49.204;10.652;2023-08-31T04:51:28;23.00;;;20.10;;
14394;SDS011;7282;49.204;10.652;2023-08-31T04:53:54;24.07;;;19.80;;
14394;SDS011;7282;49.204;10.652;2023-08-31T04:56:21;23.43;;;20.07;;
14394;SDS011;7282;49.204;10.652;2023-08-31T04:58:48;21.97;;;17.73;;
14394;SDS011;7282;49.204;10.652;2023-08-31T05:01:15;22.53;;;18.50;;
14394;SDS011;7282;49.204;10.652;2023-08-31T05:03:42;26.60;;;19.83;;
14394;SDS011;7282;49.204;10.652;2023-08-31T05:06:08;26.57;;;20.13;;
14394;SDS011;7282;49.204;10.652;2023-08-31T05:08:35;24.57;;;20.40;;
14394;SDS011;7282;49.204;10.652;2023-08-31T05:11:02;21.80;;;18.53;;
14394;SDS011;7282;49.204;10.652;2023-08-31T05:13:29;25.47;;;18.93;;
14394;SDS011;7282;49.204;10.652;2023-08-31T05:15:55;22.80;;;18.50;;
14394;SDS011;7282;49.204;10.652;2023-08-31T05:18:22;23.03;;;18.77;;
14394;SDS011;7282;49.204;10.652;2023-08-31T05:20:49;24.17;;;19.63;;
14394;SDS011;7282;49.204;10.652;2023-08-31T05:23:15;21.57;;;18.60;;
14394;SDS011;7282;49.204;10.652;2023-08-31T05:25:42;24.17;;;19.87;;
14394;SDS011;7282;49.204;10.652;2023-08-31T05:28:09;22.23;;;18.73;;
14394;SDS011;7282;49.204;10.652;2023-08-31T05:30:36;23.17;;;19.77;;
14394;SDS011;7282;49.204;10.652;2023-08-31T05:33:03;22.23;;;18.50;;
14394;SDS011;7282;49.204;10.652;2023-08-31T05:35:32;19.43;;;17.43;;
14394;SDS011;7282;49.204;10.652;2023-08-31T05:38:01;22.63;;;18.23;;
14394;SDS011;7282;49.204;10.652;2023-08-31T05:40:28;20.20;;;16.87;;
14394;SDS011;7282;49.204;10.652;2023-08-31T05:42:55;20.00;;;16.50;;
14394;SDS011;7282;49.204;10.652;2023-08-31T05:45:22;21.33;;;17.80;;
14394;SDS011;7282;49.204;10.652;2023-08-31T05:47:49;24.53;;;17.67;;
14394;SDS011;7282;49.204;10.652;2023-08-31T05:50:16;20.33;;;17.90;;
14394;SDS011;7282;49.204;10.652;2023-08-31T05:52:42;18.57;;;16.57;;
14394;SDS011;7282;49.204;10.652;2023-08-31T05:55:10;18.37;;;15.33;;
14394;SDS011;7282;49.204;10.652;2023-08-31T05:57:36;19.73;;;15.67;;
14394;SDS011;7282;49.204;10.652;2023-08-31T06:00:05;18.97;;;14.63;;
14394;SDS011;7282;49.204;10.652;2023-08-31T06:02:34;19.63;;;15.60;;
14394;SDS011;7282;49.204;10.652;2023-08-31T06:05:01;16.77;;;14.93;;
14394;SDS011;7282;49.204;10.652;2023-08-31T06:07:29;19.07;;;15.60;;
14394;SDS011;7282;49.204;10.652;2023-08-31T06:09:56;16.70;;;15.00;;
14394;SDS011;7282;49.204;10.652;2023-08-31T06:12:23;18.97;;;14.07;;
14394;SDS011;7282;49.204;10.652;2023-08-31T06:14:50;16.80;;;13.53;;
14394;SDS011;7282;49.204;10.652;2023-08-31T06:17:16;16.50;;;14.00;;
14394;SDS011;7282;49.204;10.652;2023-08-31T06:19:43;15.37;;;13.77;;
14394;SDS011;7282;49.204;10.652;2023-08-31T06:22:10;18.37;;;14.07;;
14394;SDS011;7282;49.204;10.652;2023-08-31T06:24:37;17.30;;;13.57;;
14394;SDS011;7282;49.204;10.652;2023-08-31T06:27:03;14.03;;;12.60;;
14394;SDS011;7282;49.204;10.652;2023-08-31T06:29:30;17.37;;;12.83;;
14394;SDS011;7282;49.204;10.652;2023-08-31T06:31:57;13.63;;;11.97;;
14394;SDS011;7282;49.204;10.652;2023-08-31T06:34:24;14.87;;;12.53;;
14394;SDS011;7282;49.204;10.652;2023-08-31T06:36:50;11.73;;;10.50;;
14394;SDS011;7282;49.204;10.652;2023-08-31T06:39:17;15.47;;;11.67;;
14394;SDS011;7282;49.204;10.652;2023-08-31T06:41:44;12.43;;;9.37;;
14394;SDS011;7282;49.204;10.652;2023-08-31T06:44:11;15.63;;;10.60;;
14394;SDS011;7282;49.204;10.652;2023-08-31T06:46:37;11.20;;;8.07;;
14394;SDS011;7282;49.204;10.652;2023-08-31T06:49:04;13.63;;;9.70;;
14394;SDS011;7282;49.204;10.652;2023-08-31T06:51:32;10.10;;;8.20;;
14394;SDS011;7282;49.204;10.652;2023-08-31T06:53:58;9.40;;;8.17;;
14394;SDS011;7282;49.204;10.652;2023-08-31T06:56:30;8.87;;;7.97;;
14394;SDS011;7282;49.204;10.652;2023-08-31T06:58:56;8.97;;;7.90;;
14394;SDS011;7282;49.204;10.652;2023-08-31T07:01:23;9.83;;;7.00;;
14394;SDS011;7282;49.204;10.652;2023-08-31T07:03:50;10.27;;;6.40;;
14394;SDS011;7282;49.204;10.652;2023-08-31T07:06:17;7.60;;;5.43;;
14394;SDS011;7282;49.204;10.652;2023-08-31T07:08:44;8.37;;;6.33;;
14394;SDS011;7282;49.204;10.652;2023-08-31T07:11:12;6.67;;;5.70;;
14394;SDS011;7282;49.204;10.652;2023-08-31T07:13:39;8.57;;;5.63;;
14394;SDS011;7282;49.204;10.652;2023-08-31T07:16:06;7.73;;;5.83;;
14394;SDS011;7282;49.204;10.652;2023-08-31T07:18:33;8.33;;;5.73;;
14394;SDS011;7282;49.204;10.652;2023-08-31T07:20:59;6.57;;;5.50;;
14394;SDS011;7282;49.204;10.652;2023-08-31T07:23:26;9.57;;;5.63;;
14394;SDS011;7282;49.204;10.652;2023-08-31T07:25:56;6.53;;;5.07;;
14394;SDS011;7282;49.204;10.652;2023-08-31T07:28:23;5.87;;;4.77;;
14394;SDS011;7282;49.204;10.652;2023-08-31T07:31:00;6.33;;;4.97;;
14394;SDS011;7282;49.204;10.652;2023-08-31T07:33:19;8.97;;;5.57;;
14394;SDS011;7282;49.204;10.652;2023-08-31T07:35:45;6.93;;;5.13;;
14394;SDS011;7282;49.204;10.652;2023-08-31T07:38:12;8.07;;;5.73;;
14394;SDS011;7282;49.204;10.652;2023-08-31T07:40:39;7.50;;;4.73;;
14394;SDS011;7282;49.204;10.652;2023-08-31T07:43:07;6.63;;;4.80;;
14394;SDS011;7282;49.204;10.652;2023-08-31T07:45:33;4.57;;;4.17;;
14394;SDS011;7282;49.204;10.652;2023-08-31T07:48:00;8.07;;;4.67;;
14394;SDS011;7282;49.204;10.652;2023-08-31T07:50:27;7.00;;;4.83;;
14394;SDS011;7282;49.204;10.652;2023-08-31T07:52:53;4.53;;;3.83;;
14394;SDS011;7282;49.204;10.652;2023-08-31T07:55:20;5.67;;;4.20;;
14394;SDS011;7282;49.204;10.652;2023-08-31T07:57:47;5.80;;;4.10;;
14394;SDS011;7282;49.204;10.652;2023-08-31T08:00:14;5.53;;;3.70;;
14394;SDS011;7282;49.204;10.652;2023-08-31T08:02:41;4.47;;;3.60;;
14394;SDS011;7282;49.204;10.652;2023-08-31T08:05:07;5.50;;;3.60;;
14394;SDS011;7282;49.204;10.652;2023-08-31T08:07:35;4.37;;;3.50;;
14394;SDS011;7282;49.204;10.652;2023-08-31T08:10:01;4.73;;;3.27;;
14394;SDS011;7282;49.204;10.652;2023-08-31T08:12:36;4.90;;;3.63;;
14394;SDS011;7282;49.204;10.652;2023-08-31T08:14:57;4.43;;;3.40;;
14394;SDS011;7282;49.204;10.652;2023-08-31T08:17:24;4.47;;;3.80;;
14394;SDS011;7282;49.204;10.652;2023-08-31T08:19:51;6.30;;;3.57;;
14394;SDS011;7282;49.204;10.652;2023-08-31T08:22:17;6.97;;;4.00;;
14394;SDS011;7282;49.204;10.652;2023-08-31T08:24:44;5.93;;;3.87;;
14394;SDS011;7282;49.204;10.652;2023-08-31T08:27:11;7.10;;;3.80;;
14394;SDS011;7282;49.204;10.652;2023-08-31T08:29:37;7.07;;;3.53;;
14394;SDS011;7282;49.204;10.652;2023-08-31T08:32:04;4.70;;;3.50;;
14394;SDS011;7282;49.204;10.652;2023-08-31T08:34:32;5.07;;;3.00;;
14394;SDS011;7282;49.204;10.652;2023-08-31T08:36:58;3.50;;;3.03;;
14394;SDS011;7282;49.204;10.652;2023-08-31T08:39:25;5.63;;;2.97;;
14394;SDS011;7282;49.204;10.652;2023-08-31T08:41:52;7.87;;;3.33;;
14394;SDS011;7282;49.204;10.652;2023-08-31T08:44:20;5.27;;;3.30;;
14394;SDS011;7282;49.204;10.652;2023-08-31T08:46:48;5.07;;;3.17;;
14394;SDS011;7282;49.204;10.652;2023-08-31T08:49:15;6.23;;;3.33;;
14394;SDS011;7282;49.204;10.652;2023-08-31T08:51:42;4.30;;;2.90;;
14394;SDS011;7282;49.204;10.652;2023-08-31T08:54:09;4.07;;;2.63;;
14394;SDS011;7282;49.204;10.652;2023-08-31T08:56:36;5.20;;;3.00;;
14394;SDS011;7282;49.204;10.652;2023-08-31T08:59:03;6.90;;;3.10;;
14394;SDS011;7282;49.204;10.652;2023-08-31T09:01:29;4.17;;;2.77;;
14394;SDS011;7282;49.204;10.652;2023-08-31T09:03:56;4.77;;;2.53;;
14394;SDS011;7282;49.204;10.652;2023-08-31T09:06:23;4.00;;;2.90;;
14394;SDS011;7282;49.204;10.652;2023-08-31T09:08:56;5.73;;;2.47;;
14394;SDS011;7282;49.204;10.652;2023-08-31T09:11:23;5.50;;;2.40;;
14394;SDS011;7282;49.204;10.652;2023-08-31T09:13:51;6.03;;;2.50;;
14394;SDS011;7282;49.204;10.652;2023-08-31T09:16:27;3.93;;;2.53;;
14394;SDS011;7282;49.204;10.652;2023-08-31T09:18:59;4.73;;;2.43;;
14394;SDS011;7282;49.204;10.652;2023-08-31T09:21:39;5.90;;;2.97;;
14394;SDS011;7282;49.204;10.652;2023-08-31T09:24:06;4.13;;;2.73;;
14394;SDS011;7282;49.204;10.652;2023-08-31T09:26:37;6.10;;;2.50;;
14394;SDS011;7282;49.204;10.652;2023-08-31T09:29:09;5.17;;;3.47;;
14394;SDS011;7282;49.204;10.652;2023-08-31T09:31:33;4.63;;;2.50;;
14394;SDS011;7282;49.204;10.652;2023-08-31T09:34:00;3.93;;;2.53;;
14394;SDS011;7282;49.204;10.652;2023-08-31T09:36:27;3.83;;;2.50;;
14394;SDS011;7282;49.204;10.652;2023-08-31T09:38:58;3.33;;;2.47;;
14394;SDS011;7282;49.204;10.652;2023-08-31T09:41:24;4.17;;;2.70;;
14394;SDS011;7282;49.204;10.652;2023-08-31T09:43:51;3.73;;;2.23;;
14394;SDS011;7282;49.204;10.652;2023-08-31T09:46:18;3.43;;;2.70;;
14394;SDS011;7282;49.204;10.652;2023-08-31T09:48:45;8.03;;;2.60;;
14394;SDS011;7282;49.204;10.652;2023-08-31T09:51:13;4.83;;;2.47;;
14394;SDS011;7282;49.204;10.652;2023-08-31T09:53:40;5.60;;;2.60;;
14394;SDS011;7282;49.204;10.652;2023-08-31T09:56:08;4.67;;;2.67;;
14394;SDS011;7282;49.204;10.652;2023-08-31T09:58:36;2.97;;;2.63;;
14394;SDS011;7282;49.204;10.652;2023-08-31T10:01:03;3.50;;;2.53;;
14394;SDS011;7282;49.204;10.652;2023-08-31T10:03:32;3.50;;;2.30;;
14394;SDS011;7282;49.204;10.652;2023-08-31T10:05:59;4.10;;;2.83;;
14394;SDS011;7282;49.204;10.652;2023-08-31T10:08:26;5.50;;;3.00;;
14394;SDS011;7282;49.204;10.652;2023-08-31T10:10:55;6.33;;;3.03;;
14394;SDS011;7282;49.204;10.652;2023-08-31T10:13:22;5.43;;;3.23;;
14394;SDS011;7282;49.204;10.652;2023-08-31T10:15:49;4.67;;;2.90;;
14394;SDS011;7282;49.204;10.652;2023-08-31T10:18:16;4.23;;;3.00;;
14394;SDS011;7282;49.204;10.652;2023-08-31T10:20:43;4.93;;;2.83;;
14394;SDS011;7282;49.204;10.652;2023-08-31T10:23:11;5.27;;;3.07;;
14394;SDS011;7282;49.204;10.652;2023-08-31T10:28:20;5.47;;;3.20;;
14394;SDS011;7282;49.204;10.652;2023-08-31T10:31:07;3.67;;;2.80;;
14394;SDS011;7282;49.204;10.652;2023-08-31T10:33:34;3.63;;;2.77;;
14394;SDS011;7282;49.204;10.652;2023-08-31T10:36:01;3.53;;;2.93;;
14394;SDS011;7282;49.204;10.652;2023-08-31T10:38:32;5.77;;;3.20;;
14394;SDS011;7282;49.204;10.652;2023-08-31T10:41:03;4.20;;;2.83;;
14394;SDS011;7282;49.204;10.652;2023-08-31T10:43:44;3.57;;;2.90;;
14394;SDS011;7282;49.204;10.652;2023-08-31T10:46:35;3.73;;;2.90;;
14394;SDS011;7282;49.204;10.652;2023-08-31T10:48:50;4.73;;;2.83;;
14394;SDS011;7282;49.204;10.652;2023-08-31T10:51:17;3.60;;;3.00;;
14394;SDS011;7282;49.204;10.652;2023-08-31T10:53:47;4.87;;;2.67;;
14394;SDS011;7282;49.204;10.652;2023-08-31T10:56:15;4.33;;;3.37;;
14394;SDS011;7282;49.204;10.652;2023-08-31T10:58:42;4.03;;;3.10;;
14394;SDS011;7282;49.204;10.652;2023-08-31T11:01:10;3.83;;;2.80;;
14394;SDS011;7282;49.204;10.652;2023-08-31T11:06:22;4.10;;;2.77;;
14394;SDS011;7282;49.204;10.652;2023-08-31T11:08:50;4.90;;;2.70;;
14394;SDS011;7282;49.204;10.652;2023-08-31T11:11:20;5.13;;;2.90;;
14394;SDS011;7282;49.204;10.652;2023-08-31T11:13:46;3.47;;;2.53;;
14394;SDS011;7282;49.204;10.652;2023-08-31T11:16:13;4.30;;;2.60;;
14394;SDS011;7282;49.204;10.652;2023-08-31T11:18:40;4.83;;;2.60;;
14394;SDS011;7282;49.204;10.652;2023-08-31T11:21:06;5.17;;;2.90;;
14394;SDS011;7282;49.204;10.652;2023-08-31T11:23:33;4.60;;;2.77;;
14394;SDS011;7282;49.204;10.652;2023-08-31T11:26:00;3.60;;;2.50;;
14394;SDS011;7282;49.204;10.652;2023-08-31T11:28:32;4.63;;;2.33;;
14394;SDS011;7282;49.204;10.652;2023-08-31T11:30:55;3.80;;;2.70;;
14394;SDS011;7282;49.204;10.652;2023-08-31T11:33:22;4.50;;;2.60;;
14394;SDS011;7282;49.204;10.652;2023-08-31T11:35:48;4.73;;;2.57;;
14394;SDS011;7282;49.204;10.652;2023-08-31T11:38:16;3.50;;;2.43;;
14394;SDS011;7282;49.204;10.652;2023-08-31T11:40:42;3.20;;;2.20;;
14394;SDS011;7282;49.204;10.652;2023-08-31T11:43:09;5.97;;;2.73;;
14394;SDS011;7282;49.204;10.652;2023-08-31T11:45:36;5.43;;;2.37;;
14394;SDS011;7282;49.204;10.652;2023-08-31T11:48:03;5.30;;;2.60;;
14394;SDS011;7282;49.204;10.652;2023-08-31T11:50:30;4.30;;;2.63;;
14394;SDS011;7282;49.204;10.652;2023-08-31T11:52:57;3.63;;;2.50;;
14394;SDS011;7282;49.204;10.652;2023-08-31T11:55:24;5.60;;;2.47;;
14394;SDS011;7282;49.204;10.652;2023-08-31T11:57:51;3.53;;;2.23;;
14394;SDS011;7282;49.204;10.652;2023-08-31T12:00:21;3.17;;;2.43;;
14394;SDS011;7282;49.204;10.652;2023-08-31T12:02:55;3.90;;;2.50;;
14394;SDS011;7282;49.204;10.652;2023-08-31T12:05:22;6.03;;;2.97;;
14394;SDS011;7282;49.204;10.652;2023-08-31T12:07:48;5.53;;;3.17;;
14394;SDS011;7282;49.204;10.652;2023-08-31T12:10:17;4.63;;;2.70;;
14394;SDS011;7282;49.204;10.652;2023-08-31T12:12:43;4.87;;;2.50;;
14394;SDS011;7282;49.204;10.652;2023-08-31T12:15:10;4.43;;;2.63;;
14394;SDS011;7282;49.204;10.652;2023-08-31T12:17:37;3.07;;;2.30;;
14394;SDS011;7282;49.204;10.652;2023-08-31T12:20:06;4.00;;;2.87;;
14394;SDS011;7282;49.204;10.652;2023-08-31T12:22:33;5.30;;;2.73;;
14394;SDS011;7282;49.204;10.652;2023-08-31T12:25:01;3.73;;;2.30;;
14394;SDS011;7282;49.204;10.652;2023-08-31T12:27:27;3.70;;;2.57;;
14394;SDS011;7282;49.204;10.652;2023-08-31T12:29:55;2.70;;;2.30;;
14394;SDS011;7282;49.204;10.652;2023-08-31T12:32:24;4.30;;;2.30;;
14394;SDS011;7282;49.204;10.652;2023-08-31T12:34:50;4.10;;;2.43;;
14394;SDS011;7282;49.204;10.652;2023-08-31T12:37:17;4.47;;;2.63;;
14394;SDS011;7282;49.204;10.652;2023-08-31T12:39:44;3.00;;;2.30;;
14394;SDS011;7282;49.204;10.652;2023-08-31T12:42:11;4.80;;;2.90;;
14394;SDS011;7282;49.204;10.652;2023-08-31T12:44:38;3.97;;;2.40;;
14394;SDS011;7282;49.204;10.652;2023-08-31T12:47:05;2.87;;;2.23;;
14394;SDS011;7282;49.204;10.652;2023-08-31T12:49:32;3.60;;;2.77;;
14394;SDS011;7282;49.204;10.652;2023-08-31T12:51:59;3.90;;;2.63;;
14394;SDS011;7282;49.204;10.652;2023-08-31T12:54:25;4.83;;;2.40;;
14394;SDS011;7282;49.204;10.652;2023-08-31T12:56:52;5.00;;;2.47;;
14394;SDS011;7282;49.204;10.652;2023-08-31T12:59:19;3.33;;;2.70;;
14394;SDS011;7282;49.204;10.652;2023-08-31T13:01:46;2.93;;;2.27;;
14394;SDS011;7282;49.204;10.652;2023-08-31T13:04:12;3.00;;;2.20;;
14394;SDS011;7282;49.204;10.652;2023-08-31T13:06:40;5.17;;;2.60;;
14394;SDS011;7282;49.204;10.652;2023-08-31T13:09:07;5.27;;;2.80;;
14394;SDS011;7282;49.204;10.652;2023-08-31T13:11:35;3.13;;;2.53;;
14394;SDS011;7282;49.204;10.652;2023-08-31T13:14:01;3.27;;;2.40;;
14394;SDS011;7282;49.204;10.652;2023-08-31T13:16:28;3.87;;;2.43;;
14394;SDS011;7282;49.204;10.652;2023-08-31T13:18:55;5.13;;;2.43;;
14394;SDS011;7282;49.204;10.652;2023-08-31T13:21:21;2.53;;;2.30;;
14394;SDS011;7282;49.204;10.652;2023-08-31T13:23:48;3.50;;;2.57;;
14394;SDS011;7282;49.204;10.652;2023-08-31T13:26:15;2.77;;;2.20;;
14394;SDS011;7282;49.204;10.652;2023-08-31T13:28:41;3.90;;;2.40;;
14394;SDS011;7282;49.204;10.652;2023-08-31T13:31:09;3.20;;;2.33;;
14394;SDS011;7282;49.204;10.652;2023-08-31T13:33:37;3.37;;;2.20;;
14394;SDS011;7282;49.204;10.652;2023-08-31T13:36:04;2.93;;;2.30;;
14394;SDS011;7282;49.204;10.652;2023-08-31T13:38:31;3.63;;;2.20;;
14394;SDS011;7282;49.204;10.652;2023-08-31T13:40:57;3.70;;;2.43;;
14394;SDS011;7282;49.204;10.652;2023-08-31T13:43:24;3.53;;;2.40;;
14394;SDS011;7282;49.204;10.652;2023-08-31T13:45:51;3.20;;;2.30;;
14394;SDS011;7282;49.204;10.652;2023-08-31T13:48:18;4.33;;;2.33;;
14394;SDS011;7282;49.204;10.652;2023-08-31T13:50:46;2.93;;;2.30;;
14394;SDS011;7282;49.204;10.652;2023-08-31T13:53:12;3.70;;;2.20;;
14394;SDS011;7282;49.204;10.652;2023-08-31T13:55:39;2.87;;;2.30;;
14394;SDS011;7282;49.204;10.652;2023-08-31T13:58:06;3.33;;;2.23;;
14394;SDS011;7282;49.204;10.652;2023-08-31T14:00:33;3.53;;;2.63;;
14394;SDS011;7282;49.204;10.652;2023-08-31T14:03:02;2.87;;;2.13;;
14394;SDS011;7282;49.204;10.652;2023-08-31T14:05:29;4.43;;;2.60;;
14394;SDS011;7282;49.204;10.652;2023-08-31T14:07:56;5.93;;;2.73;;
14394;SDS011;7282;49.204;10.652;2023-08-31T14:10:24;3.93;;;2.77;;
14394;SDS011;7282;49.204;10.652;2023-08-31T14:12:51;3.40;;;2.57;;
14394;SDS011;7282;49.204;10.652;2023-08-31T14:15:17;4.40;;;2.40;;
14394;SDS011;7282;49.204;10.652;2023-08-31T14:17:44;5.23;;;3.07;;
14394;SDS011;7282;49.204;10.652;2023-08-31T14:20:11;5.33;;;2.60;;
14394;SDS011;7282;49.204;10.652;2023-08-31T14:22:38;4.37;;;2.60;;
14394;SDS011;7282;49.204;10.652;2023-08-31T14:25:06;4.83;;;2.47;;
14394;SDS011;7282;49.204;10.652;2023-08-31T14:27:33;5.50;;;2.47;;
14394;SDS011;7282;49.204;10.652;2023-08-31T14:30:04;4.10;;;2.40;;
14394;SDS011;7282;49.204;10.652;2023-08-31T14:32:32;4.10;;;2.50;;
14394;SDS011;7282;49.204;10.652;2023-08-31T14:34:58;3.30;;;2.57;;
14394;SDS011;7282;49.204;10.652;2023-08-31T14:37:25;4.30;;;2.70;;
14394;SDS011;7282;49.204;10.652;2023-08-31T14:39:52;3.60;;;2.63;;
14394;SDS011;7282;49.204;10.652;2023-08-31T14:42:19;4.43;;;2.40;;
14394;SDS011;7282;49.204;10.652;2023-08-31T14:44:47;4.83;;;2.60;;
14394;SDS011;7282;49.204;10.652;2023-08-31T14:47:13;4.23;;;2.83;;
14394;SDS011;7282;49.204;10.652;2023-08-31T14:49:40;3.70;;;2.70;;
14394;SDS011;7282;49.204;10.652;2023-08-31T14:52:07;5.13;;;2.97;;
14394;SDS011;7282;49.204;10.652;2023-08-31T14:54:33;4.33;;;2.90;;